Waseca, MN

5:17 PM CDT on June 27, 2017 (GMT -0500)
Waseca Municipal

Weather History for KACQ - November, 2012

Change the Weather History Date:

Tuesday, November 6, 2012

  Actual Average Record
Temperature  
Mean Temperature 42 °F -  
Max Temperature 44 °F 44 °F 73 °F (2004)
Min Temperature 39 °F 27 °F 3 °F (1935)
Degree Days  
Heating Degree Days 24    
Moisture  
Dew Point 35 °F    
Average Humidity 77    
Maximum Humidity 81    
Minimum Humidity 66    
Precipitation  
Precipitation 0.12 in - - ()
Sea Level Pressure  
Sea Level Pressure 29.88 in    
Wind  
Wind Speed 16 mph (West)    
Max Wind Speed 23 mph    
Max Gust Speed 31 mph    
Visibility 7 miles    
Events Rain    
Averages and records for this station are not official NWS values.
T = Trace of Precipitation, MM = Missing Value Source: NWS Daily Summary

Daily Weather History Graph

Daily Weather History Graph

Search for Another Location

Airport or City:

Trip Planner

Search our weather history database for the weather conditions in past years. The results will help you decide how hot, cold, wet, or windy it might be!

Date:

Astronomy

Nov. 06, 2012 Rise Set
Actual Time 6:58 AM CST 4:57 PM CST
Civil Twilight 6:27 AM CST 5:27 PM CST
Nautical Twilight 5:53 AM CST 6:01 PM CST
Astronomical Twilight 5:19 AM CST 6:35 PM CST
Moon 11:39 PM CST (11/6) 12:48 PM CST (11/6)
Length of Visible Light 10h 59m
Length of Day
9h 58m
Waning Gibbous, 53% of the Moon is Illuminated
Nov 6
Waning Gibbous
Nov 6
Last Quarter
Nov 13
New
Nov 20
First Quarter
Nov 28
Full

Hourly Weather History & Observations

Time (CST) Temp. Windchill Dew Point Humidity Pressure Visibility Wind Dir Wind Speed Gust Speed Precip Events Conditions
12:13 AM 41.0 °F 32.8 °F 33.8 °F 76% 29.96 in 7.0 mi South 16.1 mph 20.7 mph N/A   Overcast
12:32 AM 41.0 °F 33.5 °F 33.8 °F 76% 29.96 in 7.0 mi SSW 13.8 mph - N/A   Overcast
12:53 AM 41.0 °F 33.5 °F 33.8 °F 76% 29.96 in 7.0 mi South 13.8 mph - N/A   Overcast
1:13 AM 41.0 °F 33.1 °F 33.8 °F 76% 29.95 in 7.0 mi South 15.0 mph 19.6 mph N/A   Overcast
1:33 AM 41.0 °F 32.5 °F 33.8 °F 76% 29.95 in 5.0 mi SSW 17.3 mph 23.0 mph N/A Rain Rain
1:52 AM 41.0 °F 32.5 °F 35.6 °F 81% 29.93 in 3.0 mi South 17.3 mph 21.9 mph 0.02 in Rain Light Rain
2:13 AM 41.0 °F 32.8 °F 35.6 °F 81% 29.92 in 3.0 mi South 16.1 mph 20.7 mph 0.01 in Rain Light Rain
2:33 AM 41.0 °F 32.8 °F 35.6 °F 81% 29.91 in 4.0 mi South 16.1 mph 21.9 mph 0.02 in Rain Light Rain
2:53 AM 41.0 °F 32.5 °F 35.6 °F 81% 29.90 in 4.0 mi South 17.3 mph 23.0 mph 0.02 in Rain Light Rain
3:13 AM 41.0 °F 32.8 °F 35.6 °F 81% 29.88 in 4.0 mi South 16.1 mph - N/A Rain Light Rain
3:33 AM 41.0 °F 32.5 °F 35.6 °F 81% 29.87 in 4.0 mi South 17.3 mph - N/A Rain Light Rain
3:53 AM 41.0 °F 32.8 °F 35.6 °F 81% 29.85 in 4.0 mi South 16.1 mph 23.0 mph N/A Rain Light Rain
4:12 AM 41.0 °F 31.9 °F 35.6 °F 81% 29.84 in 4.0 mi South 19.6 mph 23.0 mph N/A   Haze
4:33 AM 41.0 °F 31.9 °F 35.6 °F 81% 29.84 in 4.0 mi SSW 19.6 mph 25.3 mph N/A   Light Drizzle
4:53 AM 41.0 °F 31.9 °F 35.6 °F 81% 29.83 in 4.0 mi South 19.6 mph 27.6 mph 0.01 in Rain Light Rain
5:12 AM 41.0 °F 32.2 °F 35.6 °F 81% 29.82 in 4.0 mi SSW 18.4 mph 24.2 mph N/A Rain Light Rain
5:33 AM 41.0 °F 31.4 °F 35.6 °F 81% 29.82 in 5.0 mi SSW 21.9 mph - N/A Rain Light Rain
5:53 AM 41.0 °F 31.4 °F 35.6 °F 81% 29.82 in 5.0 mi SSW 21.9 mph 26.5 mph N/A   Light Drizzle
6:12 AM 41.0 °F 33.1 °F 35.6 °F 81% 29.81 in 4.0 mi SSW 15.0 mph - N/A   Haze
6:33 AM 41.0 °F 33.9 °F 35.6 °F 81% 29.81 in 1.8 mi SSW 12.7 mph 21.9 mph N/A Rain Light Rain
6:53 AM 41.0 °F 33.5 °F 35.6 °F 81% 29.80 in 2.0 mi SW 13.8 mph 20.7 mph N/A   Haze
7:13 AM 41.0 °F 33.5 °F 35.6 °F 81% 29.81 in 3.0 mi SW 13.8 mph - N/A   Haze
7:33 AM 41.0 °F 33.9 °F 35.6 °F 81% 29.81 in 3.0 mi WSW 12.7 mph - N/A   Haze
7:53 AM 41.0 °F 33.9 °F 35.6 °F 81% 29.81 in 5.0 mi West 12.7 mph 18.4 mph N/A   Haze
8:13 AM 42.8 °F 35.1 °F 37.4 °F 81% 29.83 in 7.0 mi West 16.1 mph 21.9 mph N/A   Overcast
8:33 AM 42.8 °F 35.4 °F 37.4 °F 81% 29.83 in 10.0 mi WNW 15.0 mph - N/A   Overcast
8:53 AM 42.8 °F 35.1 °F 35.6 °F 76% 29.83 in 10.0 mi WNW 16.1 mph 23.0 mph N/A   Overcast
9:13 AM 44.6 °F 37.2 °F 37.4 °F 76% 29.83 in 10.0 mi WNW 17.3 mph 25.3 mph N/A   Overcast
9:33 AM 44.6 °F 37.8 °F 37.4 °F 76% 29.83 in 10.0 mi WNW 15.0 mph 26.5 mph N/A   Overcast
9:53 AM 44.6 °F 36.6 °F 35.6 °F 71% 29.84 in 10.0 mi NW 19.6 mph 27.6 mph N/A   Mostly Cloudy
10:13 AM 44.6 °F 36.9 °F 35.6 °F 71% 29.84 in 10.0 mi WNW 18.4 mph 25.3 mph N/A   Overcast
10:33 AM 44.6 °F 36.4 °F 35.6 °F 71% 29.84 in 10.0 mi WNW 20.7 mph 25.3 mph N/A   Overcast
10:53 AM 44.6 °F 36.1 °F 35.6 °F 71% 29.85 in 10.0 mi WNW 21.9 mph 31.1 mph N/A   Overcast
11:13 AM 44.6 °F 37.4 °F 35.6 °F 71% 29.84 in 10.0 mi WNW 16.1 mph 23.0 mph N/A   Mostly Cloudy
11:33 AM 44.6 °F 37.2 °F 35.6 °F 71% 29.84 in 10.0 mi WNW 17.3 mph 23.0 mph N/A   Mostly Cloudy
11:53 AM 44.6 °F 37.2 °F 35.6 °F 71% 29.84 in 10.0 mi WNW 17.3 mph - N/A   Overcast
12:13 PM 44.6 °F 35.9 °F 33.8 °F 66% 29.84 in 10.0 mi NW 23.0 mph 28.8 mph N/A   Overcast
12:33 PM 44.6 °F 37.4 °F 33.8 °F 66% 29.84 in 10.0 mi NW 16.1 mph - N/A   Overcast
12:53 PM 44.6 °F 39.7 °F 33.8 °F 66% 29.83 in 10.0 mi WNW 9.2 mph - N/A   Overcast
1:13 PM 44.6 °F 37.8 °F 35.6 °F 71% 29.84 in 10.0 mi WNW 15.0 mph 20.7 mph N/A   Overcast
1:33 PM 44.6 °F 37.2 °F 35.6 °F 71% 29.84 in 10.0 mi WNW 17.3 mph - N/A   Overcast
1:53 PM 44.6 °F 37.8 °F 35.6 °F 71% 29.84 in 4.0 mi WNW 15.0 mph 20.7 mph N/A   Drizzle
2:13 PM 42.8 °F 36.2 °F 35.6 °F 76% 29.85 in 3.0 mi WNW 12.7 mph 21.9 mph N/A Rain Light Rain
2:33 PM 44.6 °F 38.8 °F 37.4 °F 76% 29.85 in 10.0 mi WNW 11.5 mph 18.4 mph N/A Rain Light Rain
2:53 PM 42.8 °F 35.4 °F 35.6 °F 76% 29.86 in 4.0 mi WNW 15.0 mph - 0.01 in Rain Light Rain
3:13 PM 42.8 °F 37.5 °F 35.6 °F 76% 29.86 in 10.0 mi WNW 9.2 mph - N/A Rain Light Rain
3:33 PM 44.6 °F 39.7 °F 37.4 °F 76% 29.86 in 10.0 mi WNW 9.2 mph - N/A   Light Drizzle
4:13 PM 42.8 °F 34.8 °F 35.6 °F 76% 29.88 in 5.0 mi WNW 17.3 mph 27.6 mph 0.01 in Rain Light Rain
4:33 PM 42.8 °F 34.3 °F 35.6 °F 76% 29.88 in 5.0 mi WNW 19.6 mph 27.6 mph 0.01 in Rain Light Rain
4:53 PM 42.8 °F 35.4 °F 35.6 °F 76% 29.88 in 10.0 mi WNW 15.0 mph - 0.01 in   Light Drizzle
5:13 PM 42.8 °F 34.5 °F 35.6 °F 76% 29.89 in 10.0 mi WNW 18.4 mph 24.2 mph N/A   Overcast
5:33 PM 42.8 °F 34.8 °F 35.6 °F 76% 29.89 in 10.0 mi WNW 17.3 mph 21.9 mph N/A   Overcast
5:53 PM 42.8 °F 35.4 °F 35.6 °F 76% 29.89 in 10.0 mi WNW 15.0 mph - N/A   Overcast
6:13 PM 42.8 °F 36.6 °F 35.6 °F 76% 29.90 in 7.0 mi NW 11.5 mph - 0.01 in Rain Light Rain
6:33 PM 41.0 °F 32.8 °F 35.6 °F 81% 29.91 in 4.0 mi NW 16.1 mph 20.7 mph 0.03 in Rain Rain
6:53 PM 41.0 °F 32.5 °F 35.6 °F 81% 29.91 in 3.0 mi NNW 17.3 mph 25.3 mph 0.05 in Rain Rain
7:13 PM 41.0 °F 31.9 °F 35.6 °F 81% 29.91 in 5.0 mi NW 19.6 mph 23.0 mph N/A Rain Rain
7:33 PM 41.0 °F 32.5 °F 35.6 °F 81% 29.92 in 7.0 mi NW 17.3 mph - N/A Rain Rain
7:53 PM 41.0 °F 32.5 °F 33.8 °F 76% 29.92 in 10.0 mi NW 17.3 mph 23.0 mph N/A Rain Light Rain
8:13 PM 41.0 °F 33.5 °F 35.6 °F 81% 29.92 in 10.0 mi NW 13.8 mph - N/A   Overcast
8:33 PM 41.0 °F 33.9 °F 35.6 °F 81% 29.93 in 10.0 mi NW 12.7 mph - N/A   Overcast
8:53 PM 41.0 °F 33.9 °F 35.6 °F 81% 29.93 in 10.0 mi NW 12.7 mph 18.4 mph N/A   Overcast
9:13 PM 41.0 °F 32.8 °F 35.6 °F 81% 29.94 in 10.0 mi NNW 16.1 mph 21.9 mph N/A   Drizzle
9:33 PM 39.2 °F 30.8 °F 33.8 °F 81% 29.95 in 7.0 mi NNW 15.0 mph - N/A   Drizzle
9:53 PM 39.2 °F 32.0 °F 33.8 °F 81% 29.95 in 10.0 mi NNW 11.5 mph - N/A   Overcast
10:13 PM 39.2 °F 32.5 °F 33.8 °F 81% 29.95 in 10.0 mi NW 10.4 mph - N/A   Overcast
10:32 PM 39.2 °F 34.2 °F 33.8 °F 81% 29.96 in 10.0 mi NNW 6.9 mph - N/A   Overcast
10:53 PM 39.2 °F 33.0 °F 33.8 °F 81% 29.96 in 10.0 mi NNW 9.2 mph - N/A   Overcast
11:13 PM 39.2 °F 33.0 °F 33.8 °F 81% 29.97 in 10.0 mi NNW 9.2 mph - N/A   Overcast
11:32 PM 39.2 °F 33.0 °F 33.8 °F 81% 29.98 in 10.0 mi NNW 9.2 mph - N/A   Overcast
11:53 PM 39.2 °F 33.0 °F 33.8 °F 81% 29.98 in 10.0 mi NNW 9.2 mph - N/A   Overcast